Terminal Aerodrome Forecast
Issued by NWS Memphis, TN

Home | Current Version | Previous Version | Text Only | Print | Product List | Glossary On
Versions: 1 2 3 4 5 6 7 8 9 10 11 12 13
000
FTUS44 KMEG 071731
TAFJBR
TAF
KJBR 071731Z 0718/0818 23015G22KT P6SM BKN250
     FM080000 25008KT P6SM BKN100 BKN250
     FM080600 29011KT P6SM SCT050
     FM081400 30018G26KT P6SM BKN045=

USA.gov is the U.S. government's official web portal to all federal, state and local government web resources and services.